sensor_id;sensor_type;location;lat;lon;timestamp;P1;P2;P0
84927;PMS7003;75189;50.640;19.242;2024-01-16T00:01:32;6;2;1
84927;PMS7003;75189;50.640;19.242;2024-01-16T00:07:40;4;4;2
84927;PMS7003;75189;50.640;19.242;2024-01-16T00:13:47;3;2;1
84927;PMS7003;75189;50.640;19.242;2024-01-16T00:20:11;1;1;0
84927;PMS7003;75189;50.640;19.242;2024-01-16T00:26:21;3;2;1
84927;PMS7003;75189;50.640;19.242;2024-01-16T00:32:29;4;4;2
84927;PMS7003;75189;50.640;19.242;2024-01-16T00:38:36;3;2;0
84927;PMS7003;75189;50.640;19.242;2024-01-16T00:44:43;5;3;2
84927;PMS7003;75189;50.640;19.242;2024-01-16T00:50:50;5;3;2
84927;PMS7003;75189;50.640;19.242;2024-01-16T00:56:57;3;2;0
84927;PMS7003;75189;50.640;19.242;2024-01-16T01:03:05;5;3;2
84927;PMS7003;75189;50.640;19.242;2024-01-16T01:09:28;4;3;2
84927;PMS7003;75189;50.640;19.242;2024-01-16T01:15:35;6;3;1
84927;PMS7003;75189;50.640;19.242;2024-01-16T01:21:42;2;1;0
84927;PMS7003;75189;50.640;19.242;2024-01-16T01:27:49;2;2;0
84927;PMS7003;75189;50.640;19.242;2024-01-16T01:33:56;5;2;0
84927;PMS7003;75189;50.640;19.242;2024-01-16T01:40:03;6;2;1
84927;PMS7003;75189;50.640;19.242;2024-01-16T01:46:12;3;2;1
84927;PMS7003;75189;50.640;19.242;2024-01-16T01:52:21;2;1;0
84927;PMS7003;75189;50.640;19.242;2024-01-16T01:58:46;4;3;2
84927;PMS7003;75189;50.640;19.242;2024-01-16T02:04:55;4;3;1
84927;PMS7003;75189;50.640;19.242;2024-01-16T02:11:03;5;3;1
84927;PMS7003;75189;50.640;19.242;2024-01-16T02:17:11;6;4;2
84927;PMS7003;75189;50.640;19.242;2024-01-16T02:29:34;5;3;2
84927;PMS7003;75189;50.640;19.242;2024-01-16T02:35:52;6;2;1
84927;PMS7003;75189;50.640;19.242;2024-01-16T02:41:59;4;2;1
84927;PMS7003;75189;50.640;19.242;2024-01-16T02:48:06;3;2;1
84927;PMS7003;75189;50.640;19.242;2024-01-16T02:54:13;7;4;2
84927;PMS7003;75189;50.640;19.242;2024-01-16T03:00:20;6;4;3
84927;PMS7003;75189;50.640;19.242;2024-01-16T03:06:28;2;2;0
84927;PMS7003;75189;50.640;19.242;2024-01-16T03:12:35;1;1;0
84927;PMS7003;75189;50.640;19.242;2024-01-16T03:18:42;0;0;0
84927;PMS7003;75189;50.640;19.242;2024-01-16T03:24:49;0;0;0
84927;PMS7003;75189;50.640;19.242;2024-01-16T03:30:57;0;0;0
84927;PMS7003;75189;50.640;19.242;2024-01-16T03:37:20;0;0;0
84927;PMS7003;75189;50.640;19.242;2024-01-16T03:43:27;0;0;0
84927;PMS7003;75189;50.640;19.242;2024-01-16T03:49:34;0;0;0
84927;PMS7003;75189;50.640;19.242;2024-01-16T03:55:41;0;0;0
84927;PMS7003;75189;50.640;19.242;2024-01-16T04:01:48;0;0;0
84927;PMS7003;75189;50.640;19.242;2024-01-16T04:07:59;2;0;0
84927;PMS7003;75189;50.640;19.242;2024-01-16T04:14:06;1;0;0
84927;PMS7003;75189;50.640;19.242;2024-01-16T04:20:13;0;0;0
84927;PMS7003;75189;50.640;19.242;2024-01-16T04:26:38;1;0;0
84927;PMS7003;75189;50.640;19.242;2024-01-16T04:32:45;2;1;0
84927;PMS7003;75189;50.640;19.242;2024-01-16T04:38:52;0;0;0
84927;PMS7003;75189;50.640;19.242;2024-01-16T04:44:59;2;0;0
84927;PMS7003;75189;50.640;19.242;2024-01-16T04:51:06;0;0;0
84927;PMS7003;75189;50.640;19.242;2024-01-16T04:57:14;0;0;0
84927;PMS7003;75189;50.640;19.242;2024-01-16T05:03:21;0;0;0
84927;PMS7003;75189;50.640;19.242;2024-01-16T05:09:28;0;0;0
84927;PMS7003;75189;50.640;19.242;2024-01-16T05:15:53;0;0;0
84927;PMS7003;75189;50.640;19.242;2024-01-16T05:22:00;0;0;0
84927;PMS7003;75189;50.640;19.242;2024-01-16T05:28:07;0;0;0
84927;PMS7003;75189;50.640;19.242;2024-01-16T05:38:20;0;0;0
84927;PMS7003;75189;50.640;19.242;2024-01-16T05:44:27;0;0;0
84927;PMS7003;75189;50.640;19.242;2024-01-16T05:50:34;0;0;0
84927;PMS7003;75189;50.640;19.242;2024-01-16T05:56:42;1;1;0
84927;PMS7003;75189;50.640;19.242;2024-01-16T06:02:49;0;0;0
84927;PMS7003;75189;50.640;19.242;2024-01-16T06:08:56;2;0;0
84927;PMS7003;75189;50.640;19.242;2024-01-16T06:15:10;2;0;0
84927;PMS7003;75189;50.640;19.242;2024-01-16T06:21:36;1;0;0
84927;PMS7003;75189;50.640;19.242;2024-01-16T06:27:43;1;0;0
84927;PMS7003;75189;50.640;19.242;2024-01-16T06:33:50;0;0;0
84927;PMS7003;75189;50.640;19.242;2024-01-16T06:39:57;1;0;0
84927;PMS7003;75189;50.640;19.242;2024-01-16T06:46:04;0;0;0
84927;PMS7003;75189;50.640;19.242;2024-01-16T06:52:12;1;1;0
84927;PMS7003;75189;50.640;19.242;2024-01-16T06:58:19;2;0;0
84927;PMS7003;75189;50.640;19.242;2024-01-16T07:04:26;1;0;0
84927;PMS7003;75189;50.640;19.242;2024-01-16T07:10:53;1;1;0
84927;PMS7003;75189;50.640;19.242;2024-01-16T07:17:00;0;0;0
84927;PMS7003;75189;50.640;19.242;2024-01-16T07:23:07;3;1;0
84927;PMS7003;75189;50.640;19.242;2024-01-16T07:29:14;0;0;0
84927;PMS7003;75189;50.640;19.242;2024-01-16T07:35:21;3;0;0
84927;PMS7003;75189;50.640;19.242;2024-01-16T07:41:28;1;0;0
84927;PMS7003;75189;50.640;19.242;2024-01-16T07:47:35;0;0;0
84927;PMS7003;75189;50.640;19.242;2024-01-16T07:53:42;2;1;0
84927;PMS7003;75189;50.640;19.242;2024-01-16T08:00:11;4;2;1
84927;PMS7003;75189;50.640;19.242;2024-01-16T08:06:18;2;1;0
84927;PMS7003;75189;50.640;19.242;2024-01-16T08:12:25;1;1;0
84927;PMS7003;75189;50.640;19.242;2024-01-16T08:18:32;4;3;2
84927;PMS7003;75189;50.640;19.242;2024-01-16T08:24:39;14;5;2
84927;PMS7003;75189;50.640;19.242;2024-01-16T08:30:46;1;1;1
84927;PMS7003;75189;50.640;19.242;2024-01-16T08:36:53;2;2;1
84927;PMS7003;75189;50.640;19.242;2024-01-16T08:43:03;4;1;0
84927;PMS7003;75189;50.640;19.242;2024-01-16T08:49:27;8;6;3
84927;PMS7003;75189;50.640;19.242;2024-01-16T08:55:34;4;3;3
84927;PMS7003;75189;50.640;19.242;2024-01-16T09:01:41;3;1;1
84927;PMS7003;75189;50.640;19.242;2024-01-16T09:07:48;3;1;0
84927;PMS7003;75189;50.640;19.242;2024-01-16T09:13:55;2;2;0
84927;PMS7003;75189;50.640;19.242;2024-01-16T09:20:02;3;1;1
84927;PMS7003;75189;50.640;19.242;2024-01-16T09:26:10;1;1;0
84927;PMS7003;75189;50.640;19.242;2024-01-16T09:32:18;0;0;0
84927;PMS7003;75189;50.640;19.242;2024-01-16T09:38:44;5;3;2
84927;PMS7003;75189;50.640;19.242;2024-01-16T09:44:51;3;2;1
84927;PMS7003;75189;50.640;19.242;2024-01-16T09:51:01;4;3;2
84927;PMS7003;75189;50.640;19.242;2024-01-16T09:57:09;5;3;1
84927;PMS7003;75189;50.640;19.242;2024-01-16T10:03:20;3;2;1
84927;PMS7003;75189;50.640;19.242;2024-01-16T10:09:28;4;4;1
84927;PMS7003;75189;50.640;19.242;2024-01-16T10:15:36;6;4;2
84927;PMS7003;75189;50.640;19.242;2024-01-16T10:21:43;3;2;1
84927;PMS7003;75189;50.640;19.242;2024-01-16T10:28:05;4;2;0
84927;PMS7003;75189;50.640;19.242;2024-01-16T10:34:20;1;1;0
84927;PMS7003;75189;50.640;19.242;2024-01-16T10:40:28;0;0;0
84927;PMS7003;75189;50.640;19.242;2024-01-16T10:46:38;4;2;0
84927;PMS7003;75189;50.640;19.242;2024-01-16T10:52:48;0;0;0
84927;PMS7003;75189;50.640;19.242;2024-01-16T10:59:06;0;0;0
84927;PMS7003;75189;50.640;19.242;2024-01-16T11:05:13;0;0;0
84927;PMS7003;75189;50.640;19.242;2024-01-16T11:11:49;1;1;0
84927;PMS7003;75189;50.640;19.242;2024-01-16T11:18:00;2;2;1
84927;PMS7003;75189;50.640;19.242;2024-01-16T11:24:09;1;0;0
84927;PMS7003;75189;50.640;19.242;2024-01-16T11:30:28;0;0;0
84927;PMS7003;75189;50.640;19.242;2024-01-16T11:42:53;4;3;1
84927;PMS7003;75189;50.640;19.242;2024-01-16T11:49:02;4;2;2
84927;PMS7003;75189;50.640;19.242;2024-01-16T12:01:59;5;2;1
84927;PMS7003;75189;50.640;19.242;2024-01-16T12:08:10;5;3;3
84927;PMS7003;75189;50.640;19.242;2024-01-16T12:14:17;4;3;3
84927;PMS7003;75189;50.640;19.242;2024-01-16T12:20:24;6;4;2
84927;PMS7003;75189;50.640;19.242;2024-01-16T12:26:38;3;2;2
84927;PMS7003;75189;50.640;19.242;2024-01-16T12:32:47;5;5;2
84927;PMS7003;75189;50.640;19.242;2024-01-16T12:38:54;6;2;2
84927;PMS7003;75189;50.640;19.242;2024-01-16T12:45:07;3;3;2
84927;PMS7003;75189;50.640;19.242;2024-01-16T12:57:29;4;4;1
84927;PMS7003;75189;50.640;19.242;2024-01-16T13:03:36;1;1;0
84927;PMS7003;75189;50.640;19.242;2024-01-16T13:09:43;56;40;24
84927;PMS7003;75189;50.640;19.242;2024-01-16T13:15:50;31;25;18
84927;PMS7003;75189;50.640;19.242;2024-01-16T13:21:58;11;6;5
84927;PMS7003;75189;50.640;19.242;2024-01-16T13:28:05;12;10;6
84927;PMS7003;75189;50.640;19.242;2024-01-16T13:34:16;9;1;1
84927;PMS7003;75189;50.640;19.242;2024-01-16T13:40:27;4;2;0
84927;PMS7003;75189;50.640;19.242;2024-01-16T13:46:34;33;25;16
84927;PMS7003;75189;50.640;19.242;2024-01-16T13:52:42;25;18;10
84927;PMS7003;75189;50.640;19.242;2024-01-16T13:58:50;29;20;12
84927;PMS7003;75189;50.640;19.242;2024-01-16T14:04:57;16;12;8
84927;PMS7003;75189;50.640;19.242;2024-01-16T14:11:05;12;8;6
84927;PMS7003;75189;50.640;19.242;2024-01-16T14:17:12;12;7;4
84927;PMS7003;75189;50.640;19.242;2024-01-16T14:23:33;2;2;0
84927;PMS7003;75189;50.640;19.242;2024-01-16T14:29:40;62;49;31
84927;PMS7003;75189;50.640;19.242;2024-01-16T14:35:47;14;10;6
84927;PMS7003;75189;50.640;19.242;2024-01-16T14:41:55;9;5;2
84927;PMS7003;75189;50.640;19.242;2024-01-16T14:48:02;1;0;0
84927;PMS7003;75189;50.640;19.242;2024-01-16T14:54:12;8;2;0
84927;PMS7003;75189;50.640;19.242;2024-01-16T15:00:20;4;4;2
84927;PMS7003;75189;50.640;19.242;2024-01-16T15:06:30;3;3;0
84927;PMS7003;75189;50.640;19.242;2024-01-16T15:12:50;1;1;0
84927;PMS7003;75189;50.640;19.242;2024-01-16T15:18:57;4;1;0
84927;PMS7003;75189;50.640;19.242;2024-01-16T15:25:04;3;2;1
84927;PMS7003;75189;50.640;19.242;2024-01-16T15:31:12;3;2;1
84927;PMS7003;75189;50.640;19.242;2024-01-16T15:37:20;3;2;0
84927;PMS7003;75189;50.640;19.242;2024-01-16T15:43:28;7;3;2
84927;PMS7003;75189;50.640;19.242;2024-01-16T15:49:35;2;1;0
84927;PMS7003;75189;50.640;19.242;2024-01-16T15:55:43;1;1;0
84927;PMS7003;75189;50.640;19.242;2024-01-16T16:02:08;14;11;6
84927;PMS7003;75189;50.640;19.242;2024-01-16T16:08:15;6;5;3
84927;PMS7003;75189;50.640;19.242;2024-01-16T16:14:22;4;3;2
84927;PMS7003;75189;50.640;19.242;2024-01-16T16:20:29;4;3;3
84927;PMS7003;75189;50.640;19.242;2024-01-16T16:26:37;4;3;2
84927;PMS7003;75189;50.640;19.242;2024-01-16T16:32:48;6;5;3
84927;PMS7003;75189;50.640;19.242;2024-01-16T16:38:57;5;3;2
84927;PMS7003;75189;50.640;19.242;2024-01-16T16:45:05;2;2;1
84927;PMS7003;75189;50.640;19.242;2024-01-16T16:51:25;5;2;1
84927;PMS7003;75189;50.640;19.242;2024-01-16T16:57:34;3;3;0
84927;PMS7003;75189;50.640;19.242;2024-01-16T17:03:44;4;2;2
84927;PMS7003;75189;50.640;19.242;2024-01-16T17:10:02;2;0;0
84927;PMS7003;75189;50.640;19.242;2024-01-16T17:16:10;3;3;0
84927;PMS7003;75189;50.640;19.242;2024-01-16T17:22:17;6;4;3
84927;PMS7003;75189;50.640;19.242;2024-01-16T17:28:25;4;4;2
84927;PMS7003;75189;50.640;19.242;2024-01-16T17:34:35;2;1;1
84927;PMS7003;75189;50.640;19.242;2024-01-16T17:40:42;4;2;2
84927;PMS7003;75189;50.640;19.242;2024-01-16T17:46:50;1;0;0
84927;PMS7003;75189;50.640;19.242;2024-01-16T17:53:00;3;2;0
84927;PMS7003;75189;50.640;19.242;2024-01-16T17:59:11;3;2;2
84927;PMS7003;75189;50.640;19.242;2024-01-16T18:05:18;3;2;2
84927;PMS7003;75189;50.640;19.242;2024-01-16T18:11:25;2;1;1
84927;PMS7003;75189;50.640;19.242;2024-01-16T18:17:32;2;1;0
84927;PMS7003;75189;50.640;19.242;2024-01-16T18:23:39;6;3;2
84927;PMS7003;75189;50.640;19.242;2024-01-16T18:29:59;2;1;0
84927;PMS7003;75189;50.640;19.242;2024-01-16T18:36:08;3;1;0
84927;PMS7003;75189;50.640;19.242;2024-01-16T18:42:16;5;4;3
84927;PMS7003;75189;50.640;19.242;2024-01-16T18:48:23;1;0;0
84927;PMS7003;75189;50.640;19.242;2024-01-16T18:54:30;3;3;2
84927;PMS7003;75189;50.640;19.242;2024-01-16T19:00:37;4;3;1
84927;PMS7003;75189;50.640;19.242;2024-01-16T19:06:44;6;2;1
84927;PMS7003;75189;50.640;19.242;2024-01-16T19:12:55;8;3;1
84927;PMS7003;75189;50.640;19.242;2024-01-16T19:19:16;7;3;1
84927;PMS7003;75189;50.640;19.242;2024-01-16T19:25:23;10;5;4
84927;PMS7003;75189;50.640;19.242;2024-01-16T19:31:32;12;5;3
84927;PMS7003;75189;50.640;19.242;2024-01-16T19:37:42;7;5;3
84927;PMS7003;75189;50.640;19.242;2024-01-16T19:43:51;8;6;4
84927;PMS7003;75189;50.640;19.242;2024-01-16T19:49:58;11;9;5
84927;PMS7003;75189;50.640;19.242;2024-01-16T19:56:05;9;7;4
84927;PMS7003;75189;50.640;19.242;2024-01-16T20:02:13;8;5;3
84927;PMS7003;75189;50.640;19.242;2024-01-16T20:08:33;15;9;7
84927;PMS7003;75189;50.640;19.242;2024-01-16T20:14:41;9;7;4
84927;PMS7003;75189;50.640;19.242;2024-01-16T20:20:49;21;11;8
84927;PMS7003;75189;50.640;19.242;2024-01-16T20:26:57;7;4;2
84927;PMS7003;75189;50.640;19.242;2024-01-16T20:33:05;14;8;5
84927;PMS7003;75189;50.640;19.242;2024-01-16T20:39:12;18;13;8
84927;PMS7003;75189;50.640;19.242;2024-01-16T20:45:21;16;11;7
84927;PMS7003;75189;50.640;19.242;2024-01-16T20:51:28;19;17;12
84927;PMS7003;75189;50.640;19.242;2024-01-16T20:57:51;24;17;11
84927;PMS7003;75189;50.640;19.242;2024-01-16T21:04:04;15;13;8
84927;PMS7003;75189;50.640;19.242;2024-01-16T21:10:11;21;12;7
84927;PMS7003;75189;50.640;19.242;2024-01-16T21:16:18;22;18;12
84927;PMS7003;75189;50.640;19.242;2024-01-16T21:22:25;21;15;10
84927;PMS7003;75189;50.640;19.242;2024-01-16T21:28:34;27;23;13
84927;PMS7003;75189;50.640;19.242;2024-01-16T21:34:45;27;17;12
84927;PMS7003;75189;50.640;19.242;2024-01-16T21:40:53;16;11;8
84927;PMS7003;75189;50.640;19.242;2024-01-16T21:47:08;27;18;11
84927;PMS7003;75189;50.640;19.242;2024-01-16T21:53:16;21;17;10
84927;PMS7003;75189;50.640;19.242;2024-01-16T21:59:24;30;18;13
84927;PMS7003;75189;50.640;19.242;2024-01-16T22:05:31;31;22;14
84927;PMS7003;75189;50.640;19.242;2024-01-16T22:11:40;43;32;19
84927;PMS7003;75189;50.640;19.242;2024-01-16T22:17:47;36;28;18
84927;PMS7003;75189;50.640;19.242;2024-01-16T22:23:54;34;26;14
84927;PMS7003;75189;50.640;19.242;2024-01-16T22:30:01;17;12;9
84927;PMS7003;75189;50.640;19.242;2024-01-16T22:36:26;26;16;10
84927;PMS7003;75189;50.640;19.242;2024-01-16T22:42:33;23;16;10
84927;PMS7003;75189;50.640;19.242;2024-01-16T22:48:40;32;22;13
84927;PMS7003;75189;50.640;19.242;2024-01-16T22:54:47;31;21;15
84927;PMS7003;75189;50.640;19.242;2024-01-16T23:00:54;29;23;12
84927;PMS7003;75189;50.640;19.242;2024-01-16T23:07:01;24;20;12
84927;PMS7003;75189;50.640;19.242;2024-01-16T23:13:08;30;22;13
84927;PMS7003;75189;50.640;19.242;2024-01-16T23:19:16;22;18;9
84927;PMS7003;75189;50.640;19.242;2024-01-16T23:25:44;23;18;12
84927;PMS7003;75189;50.640;19.242;2024-01-16T23:31:52;31;26;15
84927;PMS7003;75189;50.640;19.242;2024-01-16T23:37:59;30;19;13
84927;PMS7003;75189;50.640;19.242;2024-01-16T23:44:06;29;21;13
84927;PMS7003;75189;50.640;19.242;2024-01-16T23:50:14;19;13;7
84927;PMS7003;75189;50.640;19.242;2024-01-16T23:56:23;25;18;8
